地図

経路データ

SID SEASON NUMBER BASIN SUBBASIN NAME ISO_TIME NATURE LAT LON WMO_WIND WMO_PRES WMO_AGENCY TRACK_TYPE DIST2LAND LANDFALL IFLAG USA_AGENCY USA_ATCF_ID USA_LAT USA_LON USA_RECORD USA_STATUS USA_WIND USA_PRES USA_SSHS USA_R34_NE USA_R34_SE USA_R34_SW USA_R34_NW USA_R50_NE USA_R50_SE USA_R50_SW USA_R50_NW USA_R64_NE USA_R64_SE USA_R64_SW USA_R64_NW USA_POCI USA_ROCI USA_RMW USA_EYE TOKYO_LAT TOKYO_LON TOKYO_GRADE TOKYO_WIND TOKYO_PRES TOKYO_R50_DIR TOKYO_R50_LONG TOKYO_R50_SHORT TOKYO_R30_DIR TOKYO_R30_LONG TOKYO_R30_SHORT TOKYO_LAND CMA_LAT CMA_LON CMA_CAT CMA_WIND CMA_PRES HKO_LAT HKO_LON HKO_CAT HKO_WIND HKO_PRES NEWDELHI_LAT NEWDELHI_LON NEWDELHI_GRADE NEWDELHI_WIND NEWDELHI_PRES NEWDELHI_CI NEWDELHI_DP NEWDELHI_POCI REUNION_LAT REUNION_LON REUNION_TYPE REUNION_WIND REUNION_PRES REUNION_TNUM REUNION_CI REUNION_RMW REUNION_R34_NE REUNION_R34_SE REUNION_R34_SW REUNION_R34_NW REUNION_R50_NE REUNION_R50_SE REUNION_R50_SW REUNION_R50_NW REUNION_R64_NE REUNION_R64_SE REUNION_R64_SW REUNION_R64_NW BOM_LAT BOM_LON BOM_TYPE BOM_WIND BOM_PRES BOM_TNUM BOM_CI BOM_RMW BOM_R34_NE BOM_R34_SE BOM_R34_SW BOM_R34_NW BOM_R50_NE BOM_R50_SE BOM_R50_SW BOM_R50_NW BOM_R64_NE BOM_R64_SE BOM_R64_SW BOM_R64_NW BOM_ROCI BOM_POCI BOM_EYE BOM_POS_METHOD BOM_PRES_METHOD NADI_LAT NADI_LON NADI_CAT NADI_WIND NADI_PRES WELLINGTON_LAT WELLINGTON_LON WELLINGTON_WIND WELLINGTON_PRES DS824_LAT DS824_LON DS824_STAGE DS824_WIND DS824_PRES TD9636_LAT TD9636_LON TD9636_STAGE TD9636_WIND TD9636_PRES TD9635_LAT TD9635_LON TD9635_WIND TD9635_PRES TD9635_ROCI NEUMANN_LAT NEUMANN_LON NEUMANN_CLASS NEUMANN_WIND NEUMANN_PRES MLC_LAT MLC_LON MLC_CLASS MLC_WIND MLC_PRES USA_GUST BOM_GUST BOM_GUST_PER REUNION_GUST REUNION_GUST_PER USA_SEAHGT USA_SEARAD_NE USA_SEARAD_SE USA_SEARAD_SW USA_SEARAD_NW STORM_SPEED STORM_DIR
1981039S14153 1981 10 SP EA EDDIE 1981-02-08 06:00:00 NR -13.7000 153.300 main 447 430 ________O_____ -1 -13.7000 153.300 30 997 10 251
1981039S14153 1981 10 SP EA EDDIE 1981-02-08 09:00:00 NR -13.8669 152.794 25 1003 bom main 434 393 ______O_P_____ -1 -14.2000 153.600 20 25 1003 2.00000 -13.7003 152.391 30 997 45 45 11 264
1981039S14153 1981 10 SP EA EDDIE 1981-02-08 12:00:00 NR -13.8194 152.149 25 1003 bom main 389 360 ______O_P_____ -1 -14.0000 153.100 20 25 1003 2.00000 -13.6990 151.515 30 997 45 45 12 276
1981039S14153 1981 10 SP EA EDDIE 1981-02-08 15:00:00 NR -13.7417 151.518 25 1002 bom main 356 315 ______O_P_____ -1 -13.8000 152.600 20 25 1002 2.00000 -13.6980 150.707 30 997 45 45 15 282
1981039S14153 1981 10 SP EA EDDIE 1981-02-08 18:00:00 TS -13.5091 150.655 30 1000 bom main 315 302 O_____O_O_O_O_ jtwc_sh SH161981 -13.0000 149.600 20 -1 -13.7000 152.100 20 30 1000 2.50000 -13.7000 150.000 30 997 -13.0000 149.600 1 20 -13.0000 149.600 TC 30 45 45 16 281
1981039S14153 1981 10 SP EA EDDIE 1981-02-08 21:00:00 TS -13.4355 149.897 30 1000 bom main 304 304 P_____O_P_P_P_ SH161981 -13.2051 149.163 20 -1 -13.5000 151.500 20 30 1000 2.50000 -13.7078 149.413 31 995 -13.2227 149.128 1 21 -13.2051 149.163 TC 30 45 45 13 271
1981039S14153 1981 10 SP EA EDDIE 1981-02-09 00:00:00 TS -13.4811 149.281 30 1000 bom main 328 328 O_____O_P_P_O_ jtwc_sh SH161981 -13.4000 148.700 20 -1 -13.4000 151.000 20 30 1000 2.50000 -13.7251 148.905 32 993 -13.4259 148.654 1 22 -13.4000 148.700 TC 30 45 45 12 263
1981039S14153 1981 10 SP EA EDDIE 1981-02-09 03:00:00 TS -13.5782 148.639 30 998 bom main 364 335 P_____O_P_P_P_ SH161981 -13.5725 148.200 22 -1 -13.4000 150.200 20 30 998 2.50000 -13.7549 148.419 33 991 -13.5912 148.178 1 23 -13.5725 148.200 TC 32 45 45 12 261
1981039S14153 1981 10 SP EA EDDIE 1981-02-09 06:00:00 TS -13.6600 148.100 35 996 bom main 335 287 O_____O_O_O_O_ jtwc_sh SH161981 -13.7000 147.700 25 -1 -13.4000 149.500 30 35 996 3.00000 -13.8000 147.900 35 990 -13.7000 147.700 1 25 -13.7000 147.700 TC 35 49 49 11 262
1981039S14153 1981 10 SP EA EDDIE 1981-02-09 09:00:00 TS -13.7271 147.547 35 994 bom main 278 227 P_____O_P_P_P_ SH161981 -13.7722 147.265 27 -1 -13.5000 148.700 30 35 994 3.00000 -13.8480 147.288 38 988 -13.7431 147.217 1 27 -13.7722 147.265 TC 37 49 49 11 262
1981039S14153 1981 10 SP EA EDDIE 1981-02-09 12:00:00 TS -13.8122 146.990 40 992 bom main 227 178 O_____O_P_P_O_ jtwc_sh SH161981 -13.8000 146.800 30 -1 -13.8000 148.000 30 40 992 3.00000 -13.9118 146.632 42 987 -13.7490 146.716 1 30 -13.8000 146.800 TC 40 55 55 12 264
1981039S14153 1981 10 SP EA EDDIE 1981-02-09 15:00:00 TS -13.8440 146.358 40 990 bom main 178 124 P_____O_P_P_P_ SH161981 -13.7849 146.237 32 -1 -13.9000 147.200 30 40 990 3.00000 -13.9947 145.935 46 986 -13.7554 146.182 1 32 -13.7849 146.237 TC 45 55 55 13 266
1981039S14153 1981 10 SP EA EDDIE 1981-02-09 18:00:00 TS -13.9000 145.700 45 989 bom main 124 62 O_____O_O_O_O_ jtwc_sh SH161981 -13.8000 145.600 35 0 -14.0000 146.500 30 45 989 3.00000 -14.1000 145.200 50 985 -13.8000 145.600 2 35 -13.8000 145.600 TC 50 64 64 13 263
1981039S14153 1981 10 SP EA EDDIE 1981-02-09 21:00:00 TS -14.0146 145.002 45 988 bom main 62 11 P_____O_P_P_P_ SH161981 -13.9199 144.915 32 -1 -14.1000 145.800 30 45 988 3.00000 -14.2294 144.431 46 987 -13.9035 144.950 2 32 -13.9199 144.915 TC 50 64 64 14 258
1981039S14153 1981 10 SP EA EDDIE 1981-02-10 00:00:00 TS -14.1860 144.258 50 987 bom main 11 10 O_____O_P_P_O_ jtwc_sh SH161981 -14.1000 144.200 30 -1 -14.3000 145.000 30 50 987 3.50000 -14.3774 143.636 42 990 -14.0526 144.252 2 30 -14.1000 144.200 TC 50 69 69 14 258
1981039S14153 1981 10 SP EA EDDIE 1981-02-10 02:00:00 TS -14.2650 143.823 50 985 bom main 10 0 P_____O_P_P_P_ SH161981 -14.2090 143.733 28 -1 -14.3000 144.600 30 50 985 3.50000 -14.4827 143.096 39 991 -14.1788 143.771 2 28 -14.2090 143.733 TC 48 69 69 12 259
1981039S14153 1981 10 SP EA EDDIE 1981-02-10 03:00:00 TS -14.3018 143.631 50 985 bom main 0 0 P_____O_P_P_P_ SH161981 -14.2698 143.500 27 -1 -14.3000 144.400 30 50 985 3.50000 -14.5366 142.823 38 992 -14.2503 143.528 2 27 -14.2698 143.500 TC 47 69 69 13 257
1981039S14153 1981 10 SP EA EDDIE 1981-02-10 06:00:00 TS -14.4647 142.941 50 985 bom main 0 0 O_____O_O_O_O_ jtwc_sh SH161981 -14.5000 142.800 25 -1 -14.3000 143.600 30 50 985 3.50000 -14.7000 142.000 35 995 -14.5000 142.800 1 25 -14.5000 142.800 TC 45 69 69 14 252
1981039S14153 1981 10 SP EA EDDIE 1981-02-10 09:00:00 TS -14.7196 142.269 45 988 bom main 0 0 P_____O___P_P_ SH161981 -14.8273 142.100 27 -1 -14.4000 142.800 30 45 988 -14.8239 142.077 1 27 -14.8273 142.100 TC 45 64 64 15 247
1981039S14153 1981 10 SP EA EDDIE 1981-02-10 12:00:00 TS -15.0481 141.489 35 990 bom main 21 21 O_____O___P_O_ jtwc_sh SH161981 -15.2000 141.400 30 -1 -14.6000 141.800 30 35 990 -15.1924 141.356 1 30 -15.2000 141.400 TC 45 49 49 16 245
1981039S14153 1981 10 SP EA EDDIE 1981-02-10 13:00:00 TS -15.1668 141.259 40 990 bom main 34 34 P_____O___P_P_ SH161981 -15.3245 141.159 30 -1 -14.7000 141.600 30 40 990 3.00000 -15.3181 141.120 1 30 -15.3245 141.159 TC 45 55 55 15 243
1981039S14153 1981 10 SP EA EDDIE 1981-02-10 15:00:00 TS -15.4024 140.778 45 989 bom main 75 75 P_____O___P_P_ SH161981 -15.5725 140.678 32 -1 -14.9000 141.100 30 45 989 3.00000 -15.5647 140.658 1 32 -15.5725 140.678 TC 47 64 64 15 240
1981039S14153 1981 10 SP EA EDDIE 1981-02-10 18:00:00 TS -15.8000 140.100 50 988 bom main 139 109 O_____O___O_O_ jtwc_sh SH161981 -15.9000 140.000 35 0 -15.5000 140.400 30 50 988 3.50000 -15.9000 140.000 2 35 -15.9000 140.000 TC 50 69 69 14 240
1981039S14153 1981 10 SP EA EDDIE 1981-02-10 21:00:00 TS -16.0912 139.528 50 986 bom main 104 67 P_____O___P_P_ SH161981 -16.1222 139.427 37 0 -16.0000 139.800 30 50 986 3.50000 -16.1207 139.457 2 36 -16.1222 139.427 TC 52 69 69 12 245
1981039S14153 1981 10 SP EA EDDIE 1981-02-11 00:00:00 TS -16.3261 138.937 50 985 bom main 64 33 O_____O___P_O_ jtwc_sh SH161981 -16.3000 138.900 40 0 -16.4000 139.000 30 50 985 3.50000 -16.3044 138.949 2 37 -16.3000 138.900 TC 55 985 69 69 12 251
1981039S14153 1981 10 SP EA EDDIE 1981-02-11 03:00:00 TS -16.4887 138.351 55 982 bom main 33 24 P_____O___P_P_ SH161981 -16.4844 138.395 40 0 -16.5000 138.200 30 55 982 4.00000 -16.4860 138.417 2 38 -16.4844 138.395 TC 52 75 75 12 255
1981039S14153 1981 10 SP EA EDDIE 1981-02-11 04:00:00 TS -16.5382 138.138 55 980 bom main 15 0 P_____O___P_P_ SH161981 -16.5503 138.214 40 0 -16.5000 137.900 30 55 980 4.00000 -16.5521 138.223 2 39 -16.5503 138.214 TC 51 75 75 14 254
1981039S14153 1981 10 SP EA EDDIE 1981-02-11 06:00:00 TS -16.6750 137.675 55 981 bom main 0 0 O_____O___O_O_ jtwc_sh SH161981 -16.7000 137.800 40 0 -16.6000 137.300 30 55 981 -16.7000 137.800 2 40 -16.7000 137.800 TC 50 75 75 15 253
1981039S14153 1981 10 SP EA EDDIE 1981-02-11 09:00:00 TS -16.9060 136.909 50 983 bom main 0 0 P_____O___P_P_ SH161981 -16.9775 137.002 37 0 -16.7000 136.600 30 50 983 -16.9690 137.030 2 37 -16.9775 137.002 TC 45 69 69 17 252
1981039S14153 1981 10 SP EA EDDIE 1981-02-11 12:00:00 TS -17.1938 136.017 50 984 bom main 0 0 O_____O___P_O_ jtwc_sh SH161981 -17.3000 136.100 35 0 -16.9000 135.700 30 50 984 -17.2752 136.169 2 35 -17.3000 136.100 TC 40 69 69 18 251
1981039S14153 1981 10 SP EA EDDIE 1981-02-11 15:00:00 TS -17.4894 135.148 45 985 bom main 0 0 P_____O___P_P_ SH161981 -17.6195 135.222 32 -1 -17.1000 134.900 30 45 985 -17.6186 135.248 2 32 -17.6195 135.222 TC 37 64 64 18 250
1981039S14153 1981 10 SI WA EDDIE 1981-02-11 18:00:00 TS -17.8250 134.225 35 986 bom main 0 0 O_____O___O_O_ jtwc_sh SH161981 -18.0000 134.300 30 -1 -17.3000 134.000 30 35 986 -18.0000 134.300 1 30 -18.0000 134.300 TC 35 49 49 20 247
1981039S14153 1981 10 SI WA EDDIE 1981-02-11 21:00:00 TS -18.2601 133.228 30 988 bom main 0 0 P_____O___P_P_ SH161981 -18.4924 133.300 30 -1 -17.6000 133.000 20 30 988 -18.4556 133.313 1 28 -18.4924 133.300 TC 32 45 45 21 246
1981039S14153 1981 10 SI WA EDDIE 1981-02-12 00:00:00 TS -18.6848 132.228 30 990 bom main 0 0 O_____O___P_O_ jtwc_sh SH161981 -19.0000 132.300 30 -1 -17.8000 132.000 20 30 990 -18.9392 132.314 1 27 -19.0000 132.300 TC 30 45 45 20 245
1981039S14153 1981 10 SI WA EDDIE 1981-02-12 03:00:00 TS -19.0982 131.334 25 990 bom main 0 0 P_____O___P_P_ SH161981 -19.4449 131.340 27 -1 -18.1000 131.300 20 25 990 -19.4029 131.357 1 26 -19.4449 131.340 TC 30 45 45 18 244
1981039S14153 1981 10 SI WA EDDIE 1981-02-12 06:00:00 TS -19.4750 130.500 25 989 bom main 0 0 O_____O___O_O_ jtwc_sh SH161981 -19.8000 130.500 25 -1 -18.5000 130.500 20 25 989 -19.8000 130.500 1 25 -19.8000 130.500 TC 30 45 45 16 246
1981039S14153 1981 10 SI WA EDDIE 1981-02-12 09:00:00 TS -19.7330 129.825 25 991 bom main 0 0 P_____O___P_P_ SH161981 -20.0293 129.847 25 -1 -18.8000 129.800 20 25 991 -20.0732 129.807 1 23 -20.0293 129.847 TC 30 45 45 13 248
1981039S14153 1981 10 SI WA EDDIE 1981-02-12 12:00:00 TS -19.9698 129.230 20 992 bom main 0 0 O_____O___P_O_ jtwc_sh SH161981 -20.2000 129.300 25 -1 -19.2000 129.100 20 20 992 -20.2792 129.219 1 22 -20.2000 129.300 TC 30 45 45 12 248
1981039S14153 1981 10 SI WA EDDIE 1981-02-12 15:00:00 TS -20.1651 128.671 20 992 bom main 0 0 P_____O___P_P_ SH161981 -20.4073 128.742 22 -1 -19.4000 128.500 20 20 992 -20.4457 128.698 1 21 -20.4073 128.742 TC 27 45 45 11 249
1981039S14153 1981 10 SI WA EDDIE 1981-02-12 18:00:00 TS -20.3500 128.150 20 992 bom main 0 0 O_____O___O_O_ jtwc_sh SH161981 -20.6000 128.200 20 -1 -19.6000 128.000 20 20 992 -20.6000 128.200 1 20 -20.6000 128.200 TC 25 45 45 11 249
1981039S14153 1981 10 SI WA EDDIE 1981-02-12 21:00:00 TS -20.5673 127.576 20 992 bom main 0 0 P_____O___P_P_ SH161981 -20.7499 127.642 17 -1 -19.8000 127.300 20 20 992 -20.7776 127.652 1 18 -20.7499 127.642 TC 25 45 45 11 248
1981039S14153 1981 10 SI WA EDDIE 1981-02-13 00:00:00 TS -20.7855 127.020 20 993 bom main 0 0 O_____O___P_O_ jtwc_sh SH161981 -20.9000 127.100 15 -1 -20.0000 126.500 20 20 993 -20.9493 127.119 1 17 -20.9000 127.100 TC 25 45 45 11 244
1981039S14153 1981 10 SI WA EDDIE 1981-02-13 03:00:00 TS -21.0326 126.550 20 994 bom main 0 0 P_____O___P_P_ SH161981 -21.0923 126.592 15 -1 -20.2000 126.000 20 20 994 -21.1214 126.602 1 16 -21.0923 126.592 TC 25 45 45 10 239
1981039S14153 1981 10 SI WA EDDIE 1981-02-13 06:00:00 TS -21.3000 126.100 main 0 0 O_________O_O_ jtwc_sh SH161981 -21.3000 126.100 15 -1 -21.3000 126.100 1 15 -21.3000 126.100 TC 25 10 242
1981039S14153 1981 10 SI WA EDDIE 1981-02-13 09:00:00 TS -21.5001 125.594 main 0 0 P_________P_P_ SH161981 -21.4999 125.592 15 -1 -21.5005 125.598 1 15 -21.4999 125.592 TC 25 10 247
1981039S14153 1981 10 SI WA EDDIE 1981-02-13 12:00:00 TS -21.7023 125.104 main 0 0 O_________P_O_ jtwc_sh SH161981 -21.7000 125.100 15 -1 -21.7070 125.113 1 15 -21.7000 125.100 TC 25 10 245
1981039S14153 1981 10 SI WA EDDIE 1981-02-13 15:00:00 TS -21.9083 124.638 main 0 0 P_________P_P_ SH161981 -21.9074 124.635 15 -1 -21.9100 124.645 1 15 -21.9074 124.635 TC 25 9 245
1981039S14153 1981 10 SI WA EDDIE 1981-02-13 18:00:00 TS -22.1000 124.200 main 0 0 O_________O_O_ jtwc_sh SH161981 -22.1000 124.200 15 -1 -22.1000 124.200 1 15 -22.1000 124.200 TC 25 9 246
1981039S14153 1981 10 SI WA EDDIE 1981-02-13 21:00:00 TS -22.2596 123.783 main 0 0 P_________P_P_ SH161981 -22.2573 123.792 15 -1 -22.2640 123.766 1 15 -22.2573 123.792 TC 22 8 248
1981039S14153 1981 10 SI WA EDDIE 1981-02-14 00:00:00 TS -22.4049 123.385 main 0 0 O_________P_O_ jtwc_sh SH161981 -22.4000 123.400 15 -1 -22.4146 123.354 1 15 -22.4000 123.400 TC 20 8 248
1981039S14153 1981 10 SI WA EDDIE 1981-02-14 03:00:00 TS -22.5526 122.984 main 0 0 P_________P_P_ SH161981 -22.5500 122.992 15 -1 -22.5578 122.966 1 15 -22.5500 122.992 TC 20 8 248
1981039S14153 1981 10 SI WA EDDIE 1981-02-14 06:00:00 TS -22.7000 122.600 main 0 0 O_________O_O_ jtwc_sh SH161981 -22.7000 122.600 15 -1 -22.7000 122.600 1 15 -22.7000 122.600 TC 20 8 247
1981039S14153 1981 10 SI WA EDDIE 1981-02-14 09:00:00 TS -22.8499 122.234 main 0 0 P_________P_P_ SH161981 -22.8499 122.235 15 -1 -22.8498 122.233 1 15 -22.8499 122.235 TC 17 7 245
1981039S14153 1981 10 SI WA EDDIE 1981-02-14 12:00:00 TS -22.9999 121.897 main 0 0 O_________P_O_ jtwc_sh SH161981 -23.0000 121.900 15 -1 -22.9998 121.890 1 15 -23.0000 121.900 TC 15 7 243
1981039S14153 1981 10 SI WA EDDIE 1981-02-14 15:00:00 TS -23.1499 121.582 main 0 0 P_________P_P_ SH161981 -23.1499 121.585 15 -1 -23.1499 121.577 1 15 -23.1499 121.585 TC 15 6 241
1981039S14153 1981 10 SI WA EDDIE 1981-02-14 18:00:00 TS -23.3000 121.300 main 0 0 O_________O_O_ jtwc_sh SH161981 -23.3000 121.300 15 -1 -23.3000 121.300 1 15 -23.3000 121.300 TC 15 6 239
1981039S14153 1981 10 SI WA EDDIE 1981-02-14 21:00:00 TS -23.4500 121.039 main 0 0 P_________P_P_ SH161981 -23.4500 121.027 15 -1 -23.4500 121.063 1 13 -23.4500 121.027 TC 15 5 236
1981039S14153 1981 10 SI WA EDDIE 1981-02-15 00:00:00 TS -23.6000 120.819 main 0 0 O_________P_O_ jtwc_sh SH161981 -23.6000 120.800 15 -1 -23.6001 120.858 1 12 -23.6000 120.800 TC 15 5 230
1981039S14153 1981 10 SI WA EDDIE 1981-02-15 03:00:00 TS -23.7500 120.646 main 0 0 P_________P_P_ SH161981 -23.7500 120.633 12 -1 -23.7501 120.674 1 11 -23.7500 120.633 TC 15 4 224
1981039S14153 1981 10 SI WA EDDIE 1981-02-15 06:00:00 TS -23.9000 120.500 main 0 O_________O_O_ jtwc_sh SH161981 -23.9000 120.500 10 -1 -23.9000 120.500 1 10 -23.9000 120.500 TC 15 4 221

デジタル台風データ・検索

IBTrACS Databaseについて

本データベースは、米国NOAAが公開する1842年以降の世界の熱帯低気圧のベストトラックデータアーカイブInternational Best Track Archive for Climate Stewardship (IBTrACS)を、ウェブで閲覧しやすい形式に変換したものです。

最終更新日:2021-10-27